sensor_id;sensor_type;location;lat;lon;timestamp;pressure;altitude;pressure_sealevel;temperature;humidity
86038;BME280;76634;47.732;7.348;2024-02-23T00:02:11;96446.91;;;3.74;81.04
86038;BME280;76634;47.732;7.348;2024-02-23T00:04:36;96463.03;;;3.84;81.25
86038;BME280;76634;47.732;7.348;2024-02-23T00:07:01;96501.56;;;3.90;80.98
86038;BME280;76634;47.732;7.348;2024-02-23T00:09:28;96437.69;;;3.61;81.40
86038;BME280;76634;47.732;7.348;2024-02-23T00:11:53;96494.50;;;4.02;81.00
86038;BME280;76634;47.732;7.348;2024-02-23T00:14:19;96486.09;;;3.92;81.08
86038;BME280;76634;47.732;7.348;2024-02-23T00:16:45;96486.94;;;3.92;80.09
86038;BME280;76634;47.732;7.348;2024-02-23T00:19:11;96516.75;;;4.06;80.68
86038;BME280;76634;47.732;7.348;2024-02-23T00:21:36;96464.00;;;3.80;80.10
86038;BME280;76634;47.732;7.348;2024-02-23T00:24:02;96511.00;;;3.90;80.73
86038;BME280;76634;47.732;7.348;2024-02-23T00:26:27;96508.34;;;3.96;80.21
86038;BME280;76634;47.732;7.348;2024-02-23T00:28:54;96503.22;;;3.94;80.21
86038;BME280;76634;47.732;7.348;2024-02-23T00:31:20;96513.50;;;3.93;80.26
86038;BME280;76634;47.732;7.348;2024-02-23T00:33:46;96502.44;;;3.88;80.63
86038;BME280;76634;47.732;7.348;2024-02-23T00:36:11;96488.13;;;3.70;79.42
86038;BME280;76634;47.732;7.348;2024-02-23T00:38:37;96445.56;;;3.50;79.39
86038;BME280;76634;47.732;7.348;2024-02-23T00:41:02;96502.72;;;3.69;80.58
86038;BME280;76634;47.732;7.348;2024-02-23T00:43:27;96496.84;;;3.61;80.85
86038;BME280;76634;47.732;7.348;2024-02-23T00:45:56;96492.00;;;3.40;80.15
86038;BME280;76634;47.732;7.348;2024-02-23T00:48:21;96493.78;;;3.34;80.31
86038;BME280;76634;47.732;7.348;2024-02-23T00:50:46;96550.78;;;3.67;80.11
86038;BME280;76634;47.732;7.348;2024-02-23T00:53:12;96555.97;;;3.63;79.92
86038;BME280;76634;47.732;7.348;2024-02-23T00:55:37;96538.09;;;3.55;80.57
86038;BME280;76634;47.732;7.348;2024-02-23T00:58:02;96521.19;;;3.35;81.26
86038;BME280;76634;47.732;7.348;2024-02-23T01:00:29;96559.56;;;3.52;81.38
86038;BME280;76634;47.732;7.348;2024-02-23T01:02:54;96562.16;;;3.49;82.03
86038;BME280;76634;47.732;7.348;2024-02-23T01:05:20;96549.47;;;3.35;82.70
86038;BME280;76634;47.732;7.348;2024-02-23T01:07:45;96532.53;;;3.19;82.76
86038;BME280;76634;47.732;7.348;2024-02-23T01:10:10;96570.28;;;3.15;83.00
86038;BME280;76634;47.732;7.348;2024-02-23T01:12:36;96533.59;;;3.03;83.47
86038;BME280;76634;47.732;7.348;2024-02-23T01:15:02;96528.50;;;2.98;83.36
86038;BME280;76634;47.732;7.348;2024-02-23T01:17:28;96536.31;;;2.90;83.81
86038;BME280;76634;47.732;7.348;2024-02-23T01:19:53;96498.78;;;2.76;84.03
86038;BME280;76634;47.732;7.348;2024-02-23T01:22:19;96535.31;;;3.04;83.96
86038;BME280;76634;47.732;7.348;2024-02-23T01:24:44;96470.69;;;2.62;83.96
86038;BME280;76634;47.732;7.348;2024-02-23T01:27:09;96503.88;;;2.83;84.26
86038;BME280;76634;47.732;7.348;2024-02-23T01:29:35;96514.81;;;2.99;83.68
86038;BME280;76634;47.732;7.348;2024-02-23T01:32:00;96542.03;;;3.15;83.76
86038;BME280;76634;47.732;7.348;2024-02-23T01:34:26;96527.31;;;3.27;83.76
86038;BME280;76634;47.732;7.348;2024-02-23T01:36:51;96501.75;;;3.16;84.05
86038;BME280;76634;47.732;7.348;2024-02-23T01:39:17;96514.66;;;3.10;84.38
86038;BME280;76634;47.732;7.348;2024-02-23T01:41:42;96480.47;;;3.06;83.81
86038;BME280;76634;47.732;7.348;2024-02-23T01:44:10;96498.22;;;3.23;83.46
86038;BME280;76634;47.732;7.348;2024-02-23T01:46:35;96492.38;;;3.10;83.72
86038;BME280;76634;47.732;7.348;2024-02-23T01:49:01;96506.72;;;3.30;83.86
86038;BME280;76634;47.732;7.348;2024-02-23T01:51:27;96490.50;;;3.25;83.65
86038;BME280;76634;47.732;7.348;2024-02-23T01:53:53;96476.88;;;3.17;83.61
86038;BME280;76634;47.732;7.348;2024-02-23T01:56:19;96499.13;;;3.22;83.60
86038;BME280;76634;47.732;7.348;2024-02-23T01:58:46;96481.06;;;3.24;84.05
86038;BME280;76634;47.732;7.348;2024-02-23T02:01:12;96474.28;;;3.20;83.93
86038;BME280;76634;47.732;7.348;2024-02-23T02:03:38;96517.59;;;3.47;83.74
86038;BME280;76634;47.732;7.348;2024-02-23T02:06:05;96475.84;;;3.31;83.99
86038;BME280;76634;47.732;7.348;2024-02-23T02:08:30;96499.66;;;3.46;83.69
86038;BME280;76634;47.732;7.348;2024-02-23T02:10:56;96487.75;;;3.39;83.83
86038;BME280;76634;47.732;7.348;2024-02-23T02:13:21;96500.44;;;3.49;83.60
86038;BME280;76634;47.732;7.348;2024-02-23T02:15:47;96480.94;;;3.33;84.04
86038;BME280;76634;47.732;7.348;2024-02-23T02:18:12;96498.75;;;3.48;83.92
86038;BME280;76634;47.732;7.348;2024-02-23T02:20:40;96460.38;;;3.33;83.58
86038;BME280;76634;47.732;7.348;2024-02-23T02:23:12;96457.94;;;3.25;83.01
86038;BME280;76634;47.732;7.348;2024-02-23T02:25:38;96443.38;;;3.24;83.25
86038;BME280;76634;47.732;7.348;2024-02-23T02:28:06;96416.94;;;3.14;82.43
86038;BME280;76634;47.732;7.348;2024-02-23T02:30:32;96432.28;;;3.21;83.21
86038;BME280;76634;47.732;7.348;2024-02-23T02:32:57;96411.97;;;3.04;83.21
86038;BME280;76634;47.732;7.348;2024-02-23T02:35:23;96471.31;;;3.47;82.76
86038;BME280;76634;47.732;7.348;2024-02-23T02:37:48;96468.69;;;3.52;82.78
86038;BME280;76634;47.732;7.348;2024-02-23T02:40:14;96455.03;;;3.48;81.94
86038;BME280;76634;47.732;7.348;2024-02-23T02:42:40;96415.91;;;3.28;81.73
86038;BME280;76634;47.732;7.348;2024-02-23T02:45:05;96455.16;;;3.41;81.98
86038;BME280;76634;47.732;7.348;2024-02-23T02:47:31;96456.03;;;3.38;82.22
86038;BME280;76634;47.732;7.348;2024-02-23T02:49:56;96412.66;;;3.15;82.68
86038;BME280;76634;47.732;7.348;2024-02-23T02:52:22;96309.81;;;2.58;81.49
86038;BME280;76634;47.732;7.348;2024-02-23T02:54:48;96453.44;;;3.40;81.48
86038;BME280;76634;47.732;7.348;2024-02-23T02:57:14;96375.19;;;3.00;81.25
86038;BME280;76634;47.732;7.348;2024-02-23T02:59:39;96453.38;;;3.43;81.07
86038;BME280;76634;47.732;7.348;2024-02-23T03:02:05;96436.53;;;3.25;81.81
86038;BME280;76634;47.732;7.348;2024-02-23T03:04:30;96427.22;;;3.18;81.11
86038;BME280;76634;47.732;7.348;2024-02-23T03:06:55;96439.94;;;3.25;80.95
86038;BME280;76634;47.732;7.348;2024-02-23T03:09:21;96440.84;;;3.20;80.65
86038;BME280;76634;47.732;7.348;2024-02-23T03:11:46;96428.94;;;3.14;80.69
86038;BME280;76634;47.732;7.348;2024-02-23T03:14:12;96395.03;;;2.90;80.04
86038;BME280;76634;47.732;7.348;2024-02-23T03:16:37;96452.72;;;3.30;80.57
86038;BME280;76634;47.732;7.348;2024-02-23T03:19:03;96424.75;;;3.08;79.95
86038;BME280;76634;47.732;7.348;2024-02-23T03:21:30;96447.59;;;3.30;79.48
86038;BME280;76634;47.732;7.348;2024-02-23T03:23:55;96458.69;;;3.32;79.52
86038;BME280;76634;47.732;7.348;2024-02-23T03:26:22;96416.34;;;2.96;79.68
86038;BME280;76634;47.732;7.348;2024-02-23T03:28:47;96352.50;;;2.66;80.03
86038;BME280;76634;47.732;7.348;2024-02-23T03:31:14;96432.50;;;3.05;79.12
86038;BME280;76634;47.732;7.348;2024-02-23T03:33:39;96395.16;;;2.80;79.12
86038;BME280;76634;47.732;7.348;2024-02-23T03:36:05;96442.78;;;3.05;78.59
86038;BME280;76634;47.732;7.348;2024-02-23T03:38:30;96433.50;;;2.93;78.73
86038;BME280;76634;47.732;7.348;2024-02-23T03:40:55;96410.50;;;2.84;78.38
86038;BME280;76634;47.732;7.348;2024-02-23T03:43:21;96452.28;;;2.99;78.49
86038;BME280;76634;47.732;7.348;2024-02-23T03:45:47;96428.41;;;2.90;78.31
86038;BME280;76634;47.732;7.348;2024-02-23T03:48:12;96420.09;;;2.71;79.30
86038;BME280;76634;47.732;7.348;2024-02-23T03:50:38;96353.81;;;2.31;78.48
86038;BME280;76634;47.732;7.348;2024-02-23T03:53:03;96427.69;;;2.81;78.13
86038;BME280;76634;47.732;7.348;2024-02-23T03:55:29;96420.06;;;2.73;78.43
86038;BME280;76634;47.732;7.348;2024-02-23T03:57:54;96422.56;;;2.79;78.51
86038;BME280;76634;47.732;7.348;2024-02-23T04:00:19;96381.72;;;2.61;77.89
86038;BME280;76634;47.732;7.348;2024-02-23T04:02:46;96395.44;;;2.57;77.79
86038;BME280;76634;47.732;7.348;2024-02-23T04:05:11;96442.09;;;2.92;77.64
86038;BME280;76634;47.732;7.348;2024-02-23T04:07:36;96420.09;;;2.70;77.75
86038;BME280;76634;47.732;7.348;2024-02-23T04:10:02;96446.56;;;2.77;77.95
86038;BME280;76634;47.732;7.348;2024-02-23T04:12:29;96436.41;;;2.66;77.97
86038;BME280;76634;47.732;7.348;2024-02-23T04:14:56;96434.63;;;2.74;77.92
86038;BME280;76634;47.732;7.348;2024-02-23T04:17:22;96441.41;;;2.78;77.95
86038;BME280;76634;47.732;7.348;2024-02-23T04:19:47;96438.09;;;2.68;78.05
86038;BME280;76634;47.732;7.348;2024-02-23T04:22:12;96435.75;;;2.50;78.68
86038;BME280;76634;47.732;7.348;2024-02-23T04:24:39;96441.81;;;2.44;79.06
86038;BME280;76634;47.732;7.348;2024-02-23T04:27:05;96428.09;;;2.47;78.96
86038;BME280;76634;47.732;7.348;2024-02-23T04:29:31;96426.47;;;2.40;79.04
86038;BME280;76634;47.732;7.348;2024-02-23T04:31:57;96430.84;;;2.25;79.34
86038;BME280;76634;47.732;7.348;2024-02-23T04:34:23;96439.31;;;2.37;79.62
86038;BME280;76634;47.732;7.348;2024-02-23T04:36:48;96432.47;;;2.37;79.52
86038;BME280;76634;47.732;7.348;2024-02-23T04:39:14;96326.94;;;1.89;79.08
86038;BME280;76634;47.732;7.348;2024-02-23T04:41:39;96382.09;;;2.27;78.63
86038;BME280;76634;47.732;7.348;2024-02-23T04:44:04;96396.50;;;2.39;78.66
86038;BME280;76634;47.732;7.348;2024-02-23T04:46:30;96426.34;;;2.47;78.98
86038;BME280;76634;47.732;7.348;2024-02-23T04:48:56;96423.06;;;2.38;78.80
86038;BME280;76634;47.732;7.348;2024-02-23T04:51:21;96402.66;;;2.24;78.86
86038;BME280;76634;47.732;7.348;2024-02-23T04:53:48;96419.69;;;2.31;78.88
86038;BME280;76634;47.732;7.348;2024-02-23T04:56:13;96375.50;;;2.04;78.82
86038;BME280;76634;47.732;7.348;2024-02-23T04:58:39;96422.38;;;2.20;79.22
86038;BME280;76634;47.732;7.348;2024-02-23T05:01:06;96385.03;;;1.92;78.99
86038;BME280;76634;47.732;7.348;2024-02-23T05:03:31;96444.41;;;2.40;79.25
86038;BME280;76634;47.732;7.348;2024-02-23T05:05:57;96444.44;;;2.37;79.04
86038;BME280;76634;47.732;7.348;2024-02-23T05:08:23;96437.72;;;2.28;79.85
86038;BME280;76634;47.732;7.348;2024-02-23T05:10:52;96435.97;;;2.28;79.72
86038;BME280;76634;47.732;7.348;2024-02-23T05:13:18;96442.00;;;2.23;79.74
86038;BME280;76634;47.732;7.348;2024-02-23T05:15:43;96421.41;;;2.30;79.28
86038;BME280;76634;47.732;7.348;2024-02-23T05:18:09;96372.13;;;1.99;78.97
86038;BME280;76634;47.732;7.348;2024-02-23T05:20:34;96423.09;;;2.33;78.70
86038;BME280;76634;47.732;7.348;2024-02-23T05:22:59;96386.63;;;2.02;78.87
86038;BME280;76634;47.732;7.348;2024-02-23T05:25:25;96417.38;;;2.08;79.48
86038;BME280;76634;47.732;7.348;2024-02-23T05:27:53;96412.16;;;2.17;79.40
86038;BME280;76634;47.732;7.348;2024-02-23T05:30:18;96358.66;;;1.79;79.36
86038;BME280;76634;47.732;7.348;2024-02-23T05:32:44;96432.66;;;2.19;79.24
86038;BME280;76634;47.732;7.348;2024-02-23T05:35:09;96374.91;;;1.75;79.66
86038;BME280;76634;47.732;7.348;2024-02-23T05:37:38;96418.31;;;1.99;79.46
86038;BME280;76634;47.732;7.348;2024-02-23T05:40:03;96408.16;;;1.85;79.43
86038;BME280;76634;47.732;7.348;2024-02-23T05:42:32;96333.34;;;1.43;79.54
86038;BME280;76634;47.732;7.348;2024-02-23T05:44:58;96407.25;;;1.93;79.45
86038;BME280;76634;47.732;7.348;2024-02-23T05:47:23;96430.25;;;2.02;79.10
86038;BME280;76634;47.732;7.348;2024-02-23T05:49:49;96420.88;;;1.98;79.38
86038;BME280;76634;47.732;7.348;2024-02-23T05:52:15;96403.09;;;1.81;78.82
86038;BME280;76634;47.732;7.348;2024-02-23T05:54:40;96425.19;;;1.96;79.14
86038;BME280;76634;47.732;7.348;2024-02-23T05:57:05;96403.97;;;1.80;79.46
86038;BME280;76634;47.732;7.348;2024-02-23T05:59:31;96403.16;;;1.72;79.37
86038;BME280;76634;47.732;7.348;2024-02-23T06:01:57;96450.84;;;1.96;79.60
86038;BME280;76634;47.732;7.348;2024-02-23T06:04:25;96377.66;;;1.56;79.46
86038;BME280;76634;47.732;7.348;2024-02-23T06:06:50;96369.19;;;1.46;79.77
86038;BME280;76634;47.732;7.348;2024-02-23T06:09:16;96440.66;;;1.83;79.52
86038;BME280;76634;47.732;7.348;2024-02-23T06:11:41;96438.19;;;1.76;80.13
86038;BME280;76634;47.732;7.348;2024-02-23T06:14:07;96426.31;;;1.64;80.01
86038;BME280;76634;47.732;7.348;2024-02-23T06:16:33;96428.81;;;1.73;80.25
86038;BME280;76634;47.732;7.348;2024-02-23T06:18:58;96410.13;;;1.59;80.27
86038;BME280;76634;47.732;7.348;2024-02-23T06:21:23;96426.25;;;1.73;79.91
86038;BME280;76634;47.732;7.348;2024-02-23T06:23:48;96348.84;;;1.31;80.01
86038;BME280;76634;47.732;7.348;2024-02-23T06:26:14;96406.66;;;1.63;80.35
86038;BME280;76634;47.732;7.348;2024-02-23T06:28:40;96445.06;;;1.69;80.24
86038;BME280;76634;47.732;7.348;2024-02-23T06:31:09;96422.19;;;1.44;80.72
86038;BME280;76634;47.732;7.348;2024-02-23T06:33:34;96436.78;;;1.36;81.09
86038;BME280;76634;47.732;7.348;2024-02-23T06:36:00;96393.41;;;1.05;81.47
86038;BME280;76634;47.732;7.348;2024-02-23T06:38:26;96451.22;;;1.48;81.25
86038;BME280;76634;47.732;7.348;2024-02-23T06:40:52;96367.88;;;0.93;81.27
86038;BME280;76634;47.732;7.348;2024-02-23T06:43:17;96381.44;;;1.08;80.90
86038;BME280;76634;47.732;7.348;2024-02-23T06:45:43;96462.25;;;1.59;80.59
86038;BME280;76634;47.732;7.348;2024-02-23T06:48:08;96453.72;;;1.57;80.43
86038;BME280;76634;47.732;7.348;2024-02-23T06:50:35;96461.41;;;1.59;80.77
86038;BME280;76634;47.732;7.348;2024-02-23T06:53:00;96469.94;;;1.58;80.43
86038;BME280;76634;47.732;7.348;2024-02-23T06:55:25;96403.53;;;1.24;80.16
86038;BME280;76634;47.732;7.348;2024-02-23T06:57:51;96470.72;;;1.71;79.68
86038;BME280;76634;47.732;7.348;2024-02-23T07:00:16;96440.81;;;1.66;80.03
86038;BME280;76634;47.732;7.348;2024-02-23T07:02:42;96445.06;;;1.71;79.15
86038;BME280;76634;47.732;7.348;2024-02-23T07:05:07;96439.94;;;1.69;79.25
86038;BME280;76634;47.732;7.348;2024-02-23T07:07:34;96445.03;;;1.75;78.57
86038;BME280;76634;47.732;7.348;2024-02-23T07:10:00;96450.13;;;1.80;78.26
86038;BME280;76634;47.732;7.348;2024-02-23T07:12:25;96440.66;;;1.85;78.22
86038;BME280;76634;47.732;7.348;2024-02-23T07:14:53;96432.09;;;1.87;77.79
86038;BME280;76634;47.732;7.348;2024-02-23T07:17:18;96392.88;;;1.76;77.58
86038;BME280;76634;47.732;7.348;2024-02-23T07:19:44;96472.84;;;2.21;77.58
86038;BME280;76634;47.732;7.348;2024-02-23T07:22:10;96419.09;;;2.06;76.85
86038;BME280;76634;47.732;7.348;2024-02-23T07:24:42;96466.59;;;2.47;77.10
86038;BME280;76634;47.732;7.348;2024-02-23T07:27:07;96415.41;;;2.31;76.74
86038;BME280;76634;47.732;7.348;2024-02-23T07:29:33;96465.41;;;2.76;76.35
86038;BME280;76634;47.732;7.348;2024-02-23T07:31:58;96425.28;;;2.67;74.78
86038;BME280;76634;47.732;7.348;2024-02-23T07:34:23;96396.16;;;2.66;74.20
86038;BME280;76634;47.732;7.348;2024-02-23T07:36:52;96440.25;;;3.02;74.31
86038;BME280;76634;47.732;7.348;2024-02-23T07:39:18;96464.50;;;3.46;72.81
86038;BME280;76634;47.732;7.348;2024-02-23T07:41:43;96460.94;;;3.55;72.42
86038;BME280;76634;47.732;7.348;2024-02-23T07:44:09;96435.53;;;4.82;68.85
86038;BME280;76634;47.732;7.348;2024-02-23T07:46:34;96457.56;;;6.47;63.07
86038;BME280;76634;47.732;7.348;2024-02-23T07:48:59;96445.84;;;6.98;61.08
86038;BME280;76634;47.732;7.348;2024-02-23T07:51:25;96441.75;;;7.48;58.50
86038;BME280;76634;47.732;7.348;2024-02-23T07:53:50;96426.81;;;6.36;58.75
86038;BME280;76634;47.732;7.348;2024-02-23T07:56:16;96474.44;;;6.60;59.37
86038;BME280;76634;47.732;7.348;2024-02-23T07:58:42;96427.84;;;6.93;58.99
86038;BME280;76634;47.732;7.348;2024-02-23T08:01:07;96427.25;;;7.71;57.38
86038;BME280;76634;47.732;7.348;2024-02-23T08:03:32;96461.66;;;9.03;53.13
86038;BME280;76634;47.732;7.348;2024-02-23T08:05:58;96411.81;;;9.40;50.84
86038;BME280;76634;47.732;7.348;2024-02-23T08:08:23;96442.91;;;9.42;50.82
86038;BME280;76634;47.732;7.348;2024-02-23T08:10:50;96466.56;;;9.11;51.24
86038;BME280;76634;47.732;7.348;2024-02-23T08:13:16;96422.81;;;9.25;51.65
86038;BME280;76634;47.732;7.348;2024-02-23T08:15:43;96459.34;;;10.51;49.42
86038;BME280;76634;47.732;7.348;2024-02-23T08:18:08;96460.59;;;10.20;49.30
86038;BME280;76634;47.732;7.348;2024-02-23T08:20:33;96430.81;;;10.29;49.24
86038;BME280;76634;47.732;7.348;2024-02-23T08:22:59;96385.88;;;10.66;47.00
86038;BME280;76634;47.732;7.348;2024-02-23T08:25:24;96395.34;;;9.41;48.20
86038;BME280;76634;47.732;7.348;2024-02-23T08:27:49;96442.66;;;9.26;51.39
86038;BME280;76634;47.732;7.348;2024-02-23T08:30:15;96404.19;;;9.80;47.66
86038;BME280;76634;47.732;7.348;2024-02-23T08:32:40;96379.75;;;7.98;49.95
86038;BME280;76634;47.732;7.348;2024-02-23T08:35:06;96463.59;;;8.98;52.24
86038;BME280;76634;47.732;7.348;2024-02-23T08:37:32;96452.25;;;10.12;48.27
86038;BME280;76634;47.732;7.348;2024-02-23T08:39:57;96437.66;;;10.32;47.75
86038;BME280;76634;47.732;7.348;2024-02-23T08:42:22;96447.31;;;12.21;42.92
86038;BME280;76634;47.732;7.348;2024-02-23T08:44:48;96454.91;;;12.77;42.43
86038;BME280;76634;47.732;7.348;2024-02-23T08:47:13;96433.78;;;13.15;41.12
86038;BME280;76634;47.732;7.348;2024-02-23T08:49:39;96420.44;;;11.27;45.16
86038;BME280;76634;47.732;7.348;2024-02-23T08:52:04;96418.13;;;12.82;43.03
86038;BME280;76634;47.732;7.348;2024-02-23T08:54:30;96416.91;;;12.72;41.53
86038;BME280;76634;47.732;7.348;2024-02-23T08:56:55;96409.19;;;11.26;45.28
86038;BME280;76634;47.732;7.348;2024-02-23T08:59:21;96439.13;;;9.73;48.62
86038;BME280;76634;47.732;7.348;2024-02-23T09:01:46;96413.47;;;10.28;46.71
86038;BME280;76634;47.732;7.348;2024-02-23T09:04:12;96382.16;;;10.72;47.83
86038;BME280;76634;47.732;7.348;2024-02-23T09:06:38;96423.63;;;12.25;43.97
86038;BME280;76634;47.732;7.348;2024-02-23T09:09:03;96421.22;;;11.29;46.88
86038;BME280;76634;47.732;7.348;2024-02-23T09:11:28;96408.69;;;11.56;46.08
86038;BME280;76634;47.732;7.348;2024-02-23T09:13:54;96413.97;;;11.73;44.30
86038;BME280;76634;47.732;7.348;2024-02-23T09:16:19;96409.59;;;11.74;44.41
86038;BME280;76634;47.732;7.348;2024-02-23T09:18:45;96384.19;;;11.60;43.55
86038;BME280;76634;47.732;7.348;2024-02-23T09:21:11;96379.84;;;10.85;44.13
86038;BME280;76634;47.732;7.348;2024-02-23T09:23:36;96390.25;;;10.85;45.33
86038;BME280;76634;47.732;7.348;2024-02-23T09:26:01;96385.75;;;11.45;44.16
86038;BME280;76634;47.732;7.348;2024-02-23T09:28:30;96390.81;;;9.69;46.49
86038;BME280;76634;47.732;7.348;2024-02-23T09:30:55;96352.91;;;11.24;45.00
86038;BME280;76634;47.732;7.348;2024-02-23T09:33:21;96385.94;;;10.65;48.30
86038;BME280;76634;47.732;7.348;2024-02-23T09:35:46;96371.91;;;12.51;42.82
86038;BME280;76634;47.732;7.348;2024-02-23T09:38:11;96375.41;;;13.64;41.78
86038;BME280;76634;47.732;7.348;2024-02-23T09:40:38;96323.53;;;12.61;42.37
86038;BME280;76634;47.732;7.348;2024-02-23T09:43:07;96388.94;;;12.91;43.75
86038;BME280;76634;47.732;7.348;2024-02-23T09:45:33;96373.13;;;11.91;44.72
86038;BME280;76634;47.732;7.348;2024-02-23T09:48:00;96366.50;;;10.12;46.91
86038;BME280;76634;47.732;7.348;2024-02-23T09:50:27;96317.91;;;11.48;44.96
86038;BME280;76634;47.732;7.348;2024-02-23T09:52:53;96364.25;;;10.45;45.81
86038;BME280;76634;47.732;7.348;2024-02-23T09:55:21;96355.34;;;10.31;46.23
86038;BME280;76634;47.732;7.348;2024-02-23T09:57:48;96381.38;;;9.66;46.80
86038;BME280;76634;47.732;7.348;2024-02-23T10:00:16;96382.66;;;10.80;47.02
86038;BME280;76634;47.732;7.348;2024-02-23T10:02:42;96376.38;;;11.60;44.70
86038;BME280;76634;47.732;7.348;2024-02-23T10:05:10;96371.41;;;12.27;44.25
86038;BME280;76634;47.732;7.348;2024-02-23T10:07:36;96375.31;;;12.69;41.87
86038;BME280;76634;47.732;7.348;2024-02-23T10:10:01;96321.66;;;9.86;44.65
86038;BME280;76634;47.732;7.348;2024-02-23T10:12:26;96375.00;;;10.96;43.62
86038;BME280;76634;47.732;7.348;2024-02-23T10:14:52;96362.53;;;11.41;43.87
86038;BME280;76634;47.732;7.348;2024-02-23T10:17:19;96339.84;;;10.29;43.51
86038;BME280;76634;47.732;7.348;2024-02-23T10:19:45;96324.63;;;10.59;45.73
86038;BME280;76634;47.732;7.348;2024-02-23T10:22:10;96309.44;;;10.88;44.07
86038;BME280;76634;47.732;7.348;2024-02-23T10:24:36;96334.28;;;10.37;46.66
86038;BME280;76634;47.732;7.348;2024-02-23T10:27:05;96335.94;;;9.56;46.79
86038;BME280;76634;47.732;7.348;2024-02-23T10:29:31;96332.78;;;10.52;45.32
86038;BME280;76634;47.732;7.348;2024-02-23T10:31:57;96345.31;;;10.21;45.19
86038;BME280;76634;47.732;7.348;2024-02-23T10:34:24;96364.03;;;9.88;46.09
86038;BME280;76634;47.732;7.348;2024-02-23T10:36:49;96359.84;;;9.64;47.14
86038;BME280;76634;47.732;7.348;2024-02-23T10:39:17;96362.69;;;8.43;49.96
86038;BME280;76634;47.732;7.348;2024-02-23T10:41:47;96361.38;;;9.68;47.34
86038;BME280;76634;47.732;7.348;2024-02-23T10:44:17;96368.91;;;9.96;46.24
86038;BME280;76634;47.732;7.348;2024-02-23T10:46:44;96335.28;;;9.07;47.88
86038;BME280;76634;47.732;7.348;2024-02-23T10:49:10;96294.84;;;9.23;48.54
86038;BME280;76634;47.732;7.348;2024-02-23T10:51:37;96349.75;;;10.98;46.33
86038;BME280;76634;47.732;7.348;2024-02-23T10:54:04;96348.88;;;11.36;44.43
86038;BME280;76634;47.732;7.348;2024-02-23T10:56:29;96303.53;;;11.93;43.64
86038;BME280;76634;47.732;7.348;2024-02-23T10:58:55;96347.78;;;12.12;44.39
86038;BME280;76634;47.732;7.348;2024-02-23T11:01:21;96327.84;;;12.11;44.19
86038;BME280;76634;47.732;7.348;2024-02-23T11:03:48;96319.00;;;11.79;43.46
86038;BME280;76634;47.732;7.348;2024-02-23T11:06:16;96333.22;;;11.18;45.92
86038;BME280;76634;47.732;7.348;2024-02-23T11:08:46;96356.59;;;9.79;48.18
86038;BME280;76634;47.732;7.348;2024-02-23T11:11:11;96328.03;;;10.00;47.95
86038;BME280;76634;47.732;7.348;2024-02-23T11:13:39;96344.63;;;9.55;48.62
86038;BME280;76634;47.732;7.348;2024-02-23T11:16:06;96303.03;;;9.97;49.06
86038;BME280;76634;47.732;7.348;2024-02-23T11:18:34;96346.06;;;10.64;46.98
86038;BME280;76634;47.732;7.348;2024-02-23T11:21:02;96355.69;;;13.27;42.76
86038;BME280;76634;47.732;7.348;2024-02-23T11:23:40;96343.13;;;9.92;46.47
86038;BME280;76634;47.732;7.348;2024-02-23T11:26:05;96349.25;;;10.71;46.43
86038;BME280;76634;47.732;7.348;2024-02-23T11:28:42;96351.47;;;9.98;46.59
86038;BME280;76634;47.732;7.348;2024-02-23T11:31:14;96336.41;;;10.28;45.51
86038;BME280;76634;47.732;7.348;2024-02-23T11:33:40;96334.00;;;9.39;49.36
86038;BME280;76634;47.732;7.348;2024-02-23T11:36:12;96333.56;;;9.50;48.93
86038;BME280;76634;47.732;7.348;2024-02-23T11:38:38;96344.34;;;9.18;49.23
86038;BME280;76634;47.732;7.348;2024-02-23T11:41:04;96287.72;;;9.06;50.93
86038;BME280;76634;47.732;7.348;2024-02-23T11:43:29;96334.97;;;9.14;49.41
86038;BME280;76634;47.732;7.348;2024-02-23T11:45:55;96333.09;;;8.49;51.25
86038;BME280;76634;47.732;7.348;2024-02-23T11:48:21;96320.59;;;8.84;50.65
86038;BME280;76634;47.732;7.348;2024-02-23T11:50:48;96326.00;;;9.23;49.25
86038;BME280;76634;47.732;7.348;2024-02-23T11:53:14;96288.41;;;9.11;48.83
86038;BME280;76634;47.732;7.348;2024-02-23T11:55:39;96293.91;;;8.80;49.19
86038;BME280;76634;47.732;7.348;2024-02-23T11:58:05;96297.72;;;9.37;47.87
86038;BME280;76634;47.732;7.348;2024-02-23T12:00:31;96316.22;;;9.72;47.61
86038;BME280;76634;47.732;7.348;2024-02-23T12:02:57;96286.25;;;9.63;46.73
86038;BME280;76634;47.732;7.348;2024-02-23T12:05:22;96283.59;;;9.65;47.85
86038;BME280;76634;47.732;7.348;2024-02-23T12:07:47;96309.13;;;10.17;47.59
86038;BME280;76634;47.732;7.348;2024-02-23T12:10:13;96303.91;;;10.77;45.99
86038;BME280;76634;47.732;7.348;2024-02-23T12:12:39;96246.34;;;9.66;45.56
86038;BME280;76634;47.732;7.348;2024-02-23T12:15:05;96246.72;;;9.36;45.95
86038;BME280;76634;47.732;7.348;2024-02-23T12:17:31;96309.44;;;9.68;45.29
86038;BME280;76634;47.732;7.348;2024-02-23T12:20:00;96267.31;;;9.19;45.58
86038;BME280;76634;47.732;7.348;2024-02-23T12:22:25;96290.69;;;9.19;46.81
86038;BME280;76634;47.732;7.348;2024-02-23T12:24:51;96285.47;;;9.61;46.30
86038;BME280;76634;47.732;7.348;2024-02-23T12:27:19;96301.06;;;9.82;47.30
86038;BME280;76634;47.732;7.348;2024-02-23T12:29:53;96279.44;;;10.02;46.97
86038;BME280;76634;47.732;7.348;2024-02-23T12:32:20;96283.34;;;10.33;45.20
86038;BME280;76634;47.732;7.348;2024-02-23T12:34:46;96296.75;;;10.63;44.33
86038;BME280;76634;47.732;7.348;2024-02-23T12:37:14;96286.81;;;10.90;43.32
86038;BME280;76634;47.732;7.348;2024-02-23T12:39:40;96271.34;;;10.87;42.96
86038;BME280;76634;47.732;7.348;2024-02-23T12:42:05;96282.22;;;11.85;40.38
86038;BME280;76634;47.732;7.348;2024-02-23T12:44:30;96279.59;;;11.85;40.76
86038;BME280;76634;47.732;7.348;2024-02-23T12:46:56;96248.84;;;10.86;42.28
86038;BME280;76634;47.732;7.348;2024-02-23T12:49:21;96263.91;;;11.69;42.27
86038;BME280;76634;47.732;7.348;2024-02-23T12:51:46;96257.09;;;12.51;39.44
86038;BME280;76634;47.732;7.348;2024-02-23T12:54:12;96263.13;;;12.20;38.99
86038;BME280;76634;47.732;7.348;2024-02-23T12:56:37;96291.84;;;12.85;38.44
86038;BME280;76634;47.732;7.348;2024-02-23T12:59:02;96267.97;;;13.22;37.60
86038;BME280;76634;47.732;7.348;2024-02-23T13:01:28;96236.63;;;13.22;36.41